sensor_id;sensor_type;location;lat;lon;timestamp;temperature;humidity
38582;DHT22;24349;53.720;10.014;2023-10-13T00:01:56;12.10;99.90
38582;DHT22;24349;53.720;10.014;2023-10-13T00:04:24;12.10;99.90
38582;DHT22;24349;53.720;10.014;2023-10-13T00:06:51;12.20;99.90
38582;DHT22;24349;53.720;10.014;2023-10-13T00:09:18;12.20;99.90
38582;DHT22;24349;53.720;10.014;2023-10-13T00:11:45;12.20;99.90
38582;DHT22;24349;53.720;10.014;2023-10-13T00:14:14;12.20;99.90
38582;DHT22;24349;53.720;10.014;2023-10-13T00:16:43;12.20;99.90
38582;DHT22;24349;53.720;10.014;2023-10-13T00:19:29;12.30;99.90
38582;DHT22;24349;53.720;10.014;2023-10-13T00:22:07;12.30;99.90
38582;DHT22;24349;53.720;10.014;2023-10-13T00:24:39;12.30;99.90
38582;DHT22;24349;53.720;10.014;2023-10-13T00:27:28;12.30;99.90
38582;DHT22;24349;53.720;10.014;2023-10-13T00:30:00;12.30;99.90
38582;DHT22;24349;53.720;10.014;2023-10-13T00:32:47;12.40;99.90
38582;DHT22;24349;53.720;10.014;2023-10-13T00:35:18;12.40;99.90
38582;DHT22;24349;53.720;10.014;2023-10-13T00:37:53;12.40;99.90
38582;DHT22;24349;53.720;10.014;2023-10-13T00:40:23;12.40;99.90
38582;DHT22;24349;53.720;10.014;2023-10-13T00:42:55;12.40;99.90
38582;DHT22;24349;53.720;10.014;2023-10-13T00:45:31;12.40;99.90
38582;DHT22;24349;53.720;10.014;2023-10-13T00:47:59;12.50;99.90
38582;DHT22;24349;53.720;10.014;2023-10-13T00:50:27;12.50;99.90
38582;DHT22;24349;53.720;10.014;2023-10-13T00:52:53;12.50;99.90
38582;DHT22;24349;53.720;10.014;2023-10-13T00:55:21;12.50;99.90
38582;DHT22;24349;53.720;10.014;2023-10-13T00:57:52;12.50;99.90
38582;DHT22;24349;53.720;10.014;2023-10-13T01:00:19;12.60;99.90
38582;DHT22;24349;53.720;10.014;2023-10-13T01:02:50;12.60;99.90
38582;DHT22;24349;53.720;10.014;2023-10-13T01:05:25;12.60;99.90
38582;DHT22;24349;53.720;10.014;2023-10-13T01:07:51;12.60;99.90
38582;DHT22;24349;53.720;10.014;2023-10-13T01:10:21;12.60;99.90
38582;DHT22;24349;53.720;10.014;2023-10-13T01:12:53;12.60;99.90
38582;DHT22;24349;53.720;10.014;2023-10-13T01:15:19;12.70;99.90
38582;DHT22;24349;53.720;10.014;2023-10-13T01:17:48;12.70;99.90
38582;DHT22;24349;53.720;10.014;2023-10-13T01:20:14;12.80;99.90
38582;DHT22;24349;53.720;10.014;2023-10-13T01:22:46;12.70;99.90
38582;DHT22;24349;53.720;10.014;2023-10-13T01:25:22;12.80;99.90
38582;DHT22;24349;53.720;10.014;2023-10-13T01:27:51;12.70;99.90
38582;DHT22;24349;53.720;10.014;2023-10-13T01:30:17;12.80;99.90
38582;DHT22;24349;53.720;10.014;2023-10-13T01:32:49;12.80;99.90
38582;DHT22;24349;53.720;10.014;2023-10-13T01:35:16;12.80;99.90
38582;DHT22;24349;53.720;10.014;2023-10-13T01:37:44;12.80;99.90
38582;DHT22;24349;53.720;10.014;2023-10-13T01:40:11;12.80;99.90
38582;DHT22;24349;53.720;10.014;2023-10-13T01:42:39;12.90;99.90
38582;DHT22;24349;53.720;10.014;2023-10-13T01:45:05;12.90;99.90
38582;DHT22;24349;53.720;10.014;2023-10-13T01:47:31;12.90;99.90
38582;DHT22;24349;53.720;10.014;2023-10-13T01:49:58;12.90;99.90
38582;DHT22;24349;53.720;10.014;2023-10-13T01:52:32;13.00;99.90
38582;DHT22;24349;53.720;10.014;2023-10-13T01:54:58;12.90;99.90
38582;DHT22;24349;53.720;10.014;2023-10-13T01:57:26;13.00;99.90
38582;DHT22;24349;53.720;10.014;2023-10-13T01:59:53;13.00;99.90
38582;DHT22;24349;53.720;10.014;2023-10-13T02:02:28;13.00;99.90
38582;DHT22;24349;53.720;10.014;2023-10-13T02:04:54;13.00;99.90
38582;DHT22;24349;53.720;10.014;2023-10-13T02:07:26;13.00;99.90
38582;DHT22;24349;53.720;10.014;2023-10-13T02:10:00;13.00;99.90
38582;DHT22;24349;53.720;10.014;2023-10-13T02:12:29;13.00;99.90
38582;DHT22;24349;53.720;10.014;2023-10-13T02:15:03;13.10;99.90
38582;DHT22;24349;53.720;10.014;2023-10-13T02:17:30;13.10;99.90
38582;DHT22;24349;53.720;10.014;2023-10-13T02:20:09;13.10;99.90
38582;DHT22;24349;53.720;10.014;2023-10-13T02:22:41;13.10;99.90
38582;DHT22;24349;53.720;10.014;2023-10-13T02:25:18;13.20;99.90
38582;DHT22;24349;53.720;10.014;2023-10-13T02:28:01;13.20;99.90
38582;DHT22;24349;53.720;10.014;2023-10-13T02:30:27;13.20;99.90
38582;DHT22;24349;53.720;10.014;2023-10-13T02:32:53;13.30;99.90
38582;DHT22;24349;53.720;10.014;2023-10-13T02:35:21;13.30;99.90
38582;DHT22;24349;53.720;10.014;2023-10-13T02:37:55;13.30;99.90
38582;DHT22;24349;53.720;10.014;2023-10-13T02:40:24;13.40;99.90
38582;DHT22;24349;53.720;10.014;2023-10-13T02:42:50;13.30;99.90
38582;DHT22;24349;53.720;10.014;2023-10-13T02:45:15;13.30;99.90
38582;DHT22;24349;53.720;10.014;2023-10-13T02:47:43;13.40;99.90
38582;DHT22;24349;53.720;10.014;2023-10-13T02:50:09;13.40;99.90
38582;DHT22;24349;53.720;10.014;2023-10-13T02:52:38;13.40;99.90
38582;DHT22;24349;53.720;10.014;2023-10-13T02:55:07;13.40;99.90
38582;DHT22;24349;53.720;10.014;2023-10-13T02:57:39;13.40;99.90
38582;DHT22;24349;53.720;10.014;2023-10-13T03:00:06;13.40;99.90
38582;DHT22;24349;53.720;10.014;2023-10-13T03:02:38;13.50;99.90
38582;DHT22;24349;53.720;10.014;2023-10-13T03:05:13;13.40;99.90
38582;DHT22;24349;53.720;10.014;2023-10-13T03:07:39;13.50;99.90
38582;DHT22;24349;53.720;10.014;2023-10-13T03:10:09;13.40;99.90
38582;DHT22;24349;53.720;10.014;2023-10-13T03:12:37;13.50;99.90
38582;DHT22;24349;53.720;10.014;2023-10-13T03:15:03;13.50;99.90
38582;DHT22;24349;53.720;10.014;2023-10-13T03:17:47;13.40;99.90
38582;DHT22;24349;53.720;10.014;2023-10-13T03:20:17;13.50;99.90
38582;DHT22;24349;53.720;10.014;2023-10-13T03:22:57;13.50;99.90
38582;DHT22;24349;53.720;10.014;2023-10-13T03:25:23;13.50;99.90
38582;DHT22;24349;53.720;10.014;2023-10-13T03:27:58;13.50;99.90
38582;DHT22;24349;53.720;10.014;2023-10-13T03:30:24;13.60;99.90
38582;DHT22;24349;53.720;10.014;2023-10-13T03:33:00;13.50;99.90
38582;DHT22;24349;53.720;10.014;2023-10-13T03:35:26;13.50;99.90
38582;DHT22;24349;53.720;10.014;2023-10-13T03:38:03;13.60;99.90
38582;DHT22;24349;53.720;10.014;2023-10-13T03:40:28;13.60;99.90
38582;DHT22;24349;53.720;10.014;2023-10-13T03:42:56;13.60;99.90
38582;DHT22;24349;53.720;10.014;2023-10-13T03:45:39;13.60;99.90
38582;DHT22;24349;53.720;10.014;2023-10-13T03:48:07;13.70;99.90
38582;DHT22;24349;53.720;10.014;2023-10-13T03:50:40;13.70;99.90
38582;DHT22;24349;53.720;10.014;2023-10-13T03:53:25;13.70;99.90
38582;DHT22;24349;53.720;10.014;2023-10-13T03:55:51;13.70;99.90
38582;DHT22;24349;53.720;10.014;2023-10-13T03:58:37;13.80;99.90
38582;DHT22;24349;53.720;10.014;2023-10-13T04:01:12;13.80;99.90
38582;DHT22;24349;53.720;10.014;2023-10-13T04:03:42;13.70;99.90
38582;DHT22;24349;53.720;10.014;2023-10-13T04:06:27;13.80;99.90
38582;DHT22;24349;53.720;10.014;2023-10-13T04:09:21;13.90;99.90
38582;DHT22;24349;53.720;10.014;2023-10-13T04:11:57;13.90;99.90
38582;DHT22;24349;53.720;10.014;2023-10-13T04:14:35;13.90;99.90
38582;DHT22;24349;53.720;10.014;2023-10-13T04:17:20;14.00;99.90
38582;DHT22;24349;53.720;10.014;2023-10-13T04:19:54;14.00;99.90
38582;DHT22;24349;53.720;10.014;2023-10-13T04:22:32;14.00;99.90
38582;DHT22;24349;53.720;10.014;2023-10-13T04:25:24;14.10;99.90
38582;DHT22;24349;53.720;10.014;2023-10-13T04:28:15;14.10;99.90
38582;DHT22;24349;53.720;10.014;2023-10-13T04:30:59;14.20;99.90
38582;DHT22;24349;53.720;10.014;2023-10-13T04:33:37;14.20;99.90
38582;DHT22;24349;53.720;10.014;2023-10-13T04:36:21;14.20;99.90
38582;DHT22;24349;53.720;10.014;2023-10-13T04:38:51;14.20;99.90
38582;DHT22;24349;53.720;10.014;2023-10-13T04:41:39;14.30;99.90
38582;DHT22;24349;53.720;10.014;2023-10-13T04:44:15;14.30;99.90
38582;DHT22;24349;53.720;10.014;2023-10-13T04:47:00;14.30;99.90
38582;DHT22;24349;53.720;10.014;2023-10-13T04:49:31;14.40;99.90
38582;DHT22;24349;53.720;10.014;2023-10-13T04:52:09;14.40;99.90
38582;DHT22;24349;53.720;10.014;2023-10-13T04:54:40;14.40;99.90
38582;DHT22;24349;53.720;10.014;2023-10-13T04:57:25;14.40;99.90
38582;DHT22;24349;53.720;10.014;2023-10-13T05:00:03;14.40;99.90
38582;DHT22;24349;53.720;10.014;2023-10-13T05:02:29;14.40;99.90
38582;DHT22;24349;53.720;10.014;2023-10-13T05:05:12;14.50;99.90
38582;DHT22;24349;53.720;10.014;2023-10-13T05:07:44;14.50;99.90
38582;DHT22;24349;53.720;10.014;2023-10-13T05:10:29;14.60;99.90
38582;DHT22;24349;53.720;10.014;2023-10-13T05:13:14;14.60;99.90
38582;DHT22;24349;53.720;10.014;2023-10-13T05:15:58;14.60;99.90
38582;DHT22;24349;53.720;10.014;2023-10-13T05:18:42;14.60;99.90
38582;DHT22;24349;53.720;10.014;2023-10-13T05:21:26;14.70;99.90
38582;DHT22;24349;53.720;10.014;2023-10-13T05:24:10;14.60;99.90
38582;DHT22;24349;53.720;10.014;2023-10-13T05:26:54;14.70;99.90
38582;DHT22;24349;53.720;10.014;2023-10-13T05:29:43;14.80;99.90
38582;DHT22;24349;53.720;10.014;2023-10-13T05:32:27;14.80;99.90
38582;DHT22;24349;53.720;10.014;2023-10-13T05:35:13;14.90;99.90
38582;DHT22;24349;53.720;10.014;2023-10-13T05:37:57;14.90;99.90
38582;DHT22;24349;53.720;10.014;2023-10-13T05:41:01;15.00;99.90
38582;DHT22;24349;53.720;10.014;2023-10-13T05:43:46;15.00;99.90
38582;DHT22;24349;53.720;10.014;2023-10-13T05:46:31;15.00;99.90
38582;DHT22;24349;53.720;10.014;2023-10-13T05:49:04;15.00;99.90
38582;DHT22;24349;53.720;10.014;2023-10-13T05:51:43;15.20;99.90
38582;DHT22;24349;53.720;10.014;2023-10-13T05:54:17;15.20;99.90
38582;DHT22;24349;53.720;10.014;2023-10-13T05:56:47;15.30;99.90
38582;DHT22;24349;53.720;10.014;2023-10-13T05:59:33;15.30;99.90
38582;DHT22;24349;53.720;10.014;2023-10-13T06:02:19;15.40;99.90
38582;DHT22;24349;53.720;10.014;2023-10-13T06:05:11;15.40;99.90
38582;DHT22;24349;53.720;10.014;2023-10-13T06:07:56;15.50;99.90
38582;DHT22;24349;53.720;10.014;2023-10-13T06:10:41;15.60;99.90
38582;DHT22;24349;53.720;10.014;2023-10-13T06:13:25;15.60;99.90
38582;DHT22;24349;53.720;10.014;2023-10-13T06:16:15;15.60;99.90
38582;DHT22;24349;53.720;10.014;2023-10-13T06:18:59;15.70;99.90
38582;DHT22;24349;53.720;10.014;2023-10-13T06:21:44;15.80;99.90
38582;DHT22;24349;53.720;10.014;2023-10-13T06:24:29;15.80;99.90
38582;DHT22;24349;53.720;10.014;2023-10-13T06:27:17;15.90;99.90
38582;DHT22;24349;53.720;10.014;2023-10-13T06:30:02;15.90;99.90
38582;DHT22;24349;53.720;10.014;2023-10-13T06:32:30;16.00;99.90
38582;DHT22;24349;53.720;10.014;2023-10-13T06:34:56;16.00;99.90
38582;DHT22;24349;53.720;10.014;2023-10-13T06:37:26;16.00;99.90
38582;DHT22;24349;53.720;10.014;2023-10-13T06:40:11;16.00;99.90
38582;DHT22;24349;53.720;10.014;2023-10-13T06:42:55;16.00;99.90
38582;DHT22;24349;53.720;10.014;2023-10-13T06:45:37;16.10;99.90
38582;DHT22;24349;53.720;10.014;2023-10-13T06:48:03;16.10;99.90
38582;DHT22;24349;53.720;10.014;2023-10-13T06:50:30;16.10;99.90
38582;DHT22;24349;53.720;10.014;2023-10-13T06:53:05;16.10;99.90
38582;DHT22;24349;53.720;10.014;2023-10-13T06:55:30;16.10;99.90
38582;DHT22;24349;53.720;10.014;2023-10-13T06:58:03;16.20;99.90
38582;DHT22;24349;53.720;10.014;2023-10-13T07:00:32;16.20;99.90
38582;DHT22;24349;53.720;10.014;2023-10-13T07:03:04;16.10;99.90
38582;DHT22;24349;53.720;10.014;2023-10-13T07:05:43;16.20;99.90
38582;DHT22;24349;53.720;10.014;2023-10-13T07:08:10;16.10;99.90
38582;DHT22;24349;53.720;10.014;2023-10-13T07:10:48;16.20;99.90
38582;DHT22;24349;53.720;10.014;2023-10-13T07:13:39;16.30;99.90
38582;DHT22;24349;53.720;10.014;2023-10-13T07:16:05;16.30;99.90
38582;DHT22;24349;53.720;10.014;2023-10-13T07:18:34;16.20;99.90
38582;DHT22;24349;53.720;10.014;2023-10-13T07:21:09;16.20;99.90
38582;DHT22;24349;53.720;10.014;2023-10-13T07:23:38;16.30;99.90
38582;DHT22;24349;53.720;10.014;2023-10-13T07:26:05;16.30;99.90
38582;DHT22;24349;53.720;10.014;2023-10-13T07:28:32;16.30;99.90
38582;DHT22;24349;53.720;10.014;2023-10-13T07:31:02;16.30;99.90
38582;DHT22;24349;53.720;10.014;2023-10-13T07:33:28;16.40;99.90
38582;DHT22;24349;53.720;10.014;2023-10-13T07:36:01;16.40;99.90
38582;DHT22;24349;53.720;10.014;2023-10-13T07:38:35;16.40;99.90
38582;DHT22;24349;53.720;10.014;2023-10-13T07:41:03;16.50;99.90
38582;DHT22;24349;53.720;10.014;2023-10-13T07:43:41;16.50;99.90
38582;DHT22;24349;53.720;10.014;2023-10-13T07:46:08;16.50;99.90
38582;DHT22;24349;53.720;10.014;2023-10-13T07:48:38;16.50;99.90
38582;DHT22;24349;53.720;10.014;2023-10-13T07:51:07;16.50;99.90
38582;DHT22;24349;53.720;10.014;2023-10-13T07:53:40;16.50;99.90
38582;DHT22;24349;53.720;10.014;2023-10-13T07:56:09;16.50;99.90
38582;DHT22;24349;53.720;10.014;2023-10-13T07:58:38;16.40;99.90
38582;DHT22;24349;53.720;10.014;2023-10-13T08:01:18;16.40;99.90
38582;DHT22;24349;53.720;10.014;2023-10-13T08:03:44;16.40;99.90
38582;DHT22;24349;53.720;10.014;2023-10-13T08:06:12;16.50;99.90
38582;DHT22;24349;53.720;10.014;2023-10-13T08:08:38;16.40;99.90
38582;DHT22;24349;53.720;10.014;2023-10-13T08:11:14;16.40;99.90
38582;DHT22;24349;53.720;10.014;2023-10-13T08:13:56;16.40;99.90
38582;DHT22;24349;53.720;10.014;2023-10-13T08:16:33;16.40;99.90
38582;DHT22;24349;53.720;10.014;2023-10-13T08:19:27;16.50;99.90
38582;DHT22;24349;53.720;10.014;2023-10-13T08:21:57;16.50;99.90
38582;DHT22;24349;53.720;10.014;2023-10-13T08:24:48;16.50;99.90
38582;DHT22;24349;53.720;10.014;2023-10-13T08:27:21;16.50;99.90
38582;DHT22;24349;53.720;10.014;2023-10-13T08:30:15;16.50;99.90
38582;DHT22;24349;53.720;10.014;2023-10-13T08:32:55;16.50;99.90
38582;DHT22;24349;53.720;10.014;2023-10-13T08:35:22;16.50;99.90
38582;DHT22;24349;53.720;10.014;2023-10-13T08:37:49;16.40;99.90
38582;DHT22;24349;53.720;10.014;2023-10-13T08:40:17;16.40;99.90
38582;DHT22;24349;53.720;10.014;2023-10-13T08:43:05;16.30;99.90
38582;DHT22;24349;53.720;10.014;2023-10-13T08:45:36;16.30;99.90
38582;DHT22;24349;53.720;10.014;2023-10-13T08:48:01;16.30;99.90
38582;DHT22;24349;53.720;10.014;2023-10-13T08:50:44;16.20;99.90
38582;DHT22;24349;53.720;10.014;2023-10-13T08:56:19;16.30;99.90
38582;DHT22;24349;53.720;10.014;2023-10-13T08:59:08;16.30;99.90
38582;DHT22;24349;53.720;10.014;2023-10-13T09:01:36;16.30;99.90
38582;DHT22;24349;53.720;10.014;2023-10-13T09:04:18;16.30;99.90
38582;DHT22;24349;53.720;10.014;2023-10-13T09:07:02;16.30;99.90
38582;DHT22;24349;53.720;10.014;2023-10-13T09:09:48;16.20;99.90
38582;DHT22;24349;53.720;10.014;2023-10-13T09:12:21;16.10;99.90
38582;DHT22;24349;53.720;10.014;2023-10-13T09:15:00;16.10;99.90
38582;DHT22;24349;53.720;10.014;2023-10-13T09:17:40;16.20;99.90
38582;DHT22;24349;53.720;10.014;2023-10-13T09:20:08;16.20;99.90
38582;DHT22;24349;53.720;10.014;2023-10-13T09:22:50;16.30;99.90
38582;DHT22;24349;53.720;10.014;2023-10-13T09:25:39;16.30;99.90
38582;DHT22;24349;53.720;10.014;2023-10-13T09:28:27;16.40;99.90
38582;DHT22;24349;53.720;10.014;2023-10-13T09:30:54;16.50;99.90
38582;DHT22;24349;53.720;10.014;2023-10-13T09:33:27;16.60;99.90
38582;DHT22;24349;53.720;10.014;2023-10-13T09:36:03;16.70;99.90
38582;DHT22;24349;53.720;10.014;2023-10-13T09:38:38;16.70;99.90
38582;DHT22;24349;53.720;10.014;2023-10-13T09:41:24;16.70;99.90
38582;DHT22;24349;53.720;10.014;2023-10-13T09:43:53;16.90;99.90
38582;DHT22;24349;53.720;10.014;2023-10-13T09:46:26;16.90;99.90
38582;DHT22;24349;53.720;10.014;2023-10-13T09:49:07;17.00;99.90
38582;DHT22;24349;53.720;10.014;2023-10-13T09:51:34;17.10;99.90
38582;DHT22;24349;53.720;10.014;2023-10-13T09:54:19;17.20;99.90
38582;DHT22;24349;53.720;10.014;2023-10-13T09:56:57;17.20;99.90
38582;DHT22;24349;53.720;10.014;2023-10-13T09:59:44;17.20;99.90
38582;DHT22;24349;53.720;10.014;2023-10-13T10:02:18;17.20;99.90
38582;DHT22;24349;53.720;10.014;2023-10-13T10:04:56;17.20;99.90
38582;DHT22;24349;53.720;10.014;2023-10-13T10:07:38;17.20;99.90
38582;DHT22;24349;53.720;10.014;2023-10-13T10:10:05;17.20;99.90
38582;DHT22;24349;53.720;10.014;2023-10-13T10:17:54;17.00;99.90
38582;DHT22;24349;53.720;10.014;2023-10-13T10:20:31;17.00;99.90
38582;DHT22;24349;53.720;10.014;2023-10-13T10:23:27;17.00;99.90
38582;DHT22;24349;53.720;10.014;2023-10-13T10:25:54;17.00;99.90
38582;DHT22;24349;53.720;10.014;2023-10-13T10:28:42;17.00;99.90
38582;DHT22;24349;53.720;10.014;2023-10-13T10:31:08;17.00;99.90
38582;DHT22;24349;53.720;10.014;2023-10-13T10:33:41;17.10;99.90
38582;DHT22;24349;53.720;10.014;2023-10-13T10:36:07;17.30;99.90
38582;DHT22;24349;53.720;10.014;2023-10-13T10:38:51;17.40;99.90
38582;DHT22;24349;53.720;10.014;2023-10-13T10:41:29;17.40;99.90
38582;DHT22;24349;53.720;10.014;2023-10-13T10:44:15;17.40;99.90
38582;DHT22;24349;53.720;10.014;2023-10-13T10:46:41;17.40;99.90
38582;DHT22;24349;53.720;10.014;2023-10-13T10:49:18;17.30;99.90
38582;DHT22;24349;53.720;10.014;2023-10-13T10:51:58;17.40;99.90
38582;DHT22;24349;53.720;10.014;2023-10-13T10:54:26;17.40;99.90
38582;DHT22;24349;53.720;10.014;2023-10-13T10:56:57;17.50;99.90
38582;DHT22;24349;53.720;10.014;2023-10-13T10:59:40;17.50;99.90
38582;DHT22;24349;53.720;10.014;2023-10-13T11:02:07;17.50;99.90
38582;DHT22;24349;53.720;10.014;2023-10-13T11:04:34;17.50;99.90
38582;DHT22;24349;53.720;10.014;2023-10-13T11:07:06;17.50;99.90
38582;DHT22;24349;53.720;10.014;2023-10-13T11:09:33;17.70;99.90
38582;DHT22;24349;53.720;10.014;2023-10-13T11:14:43;17.90;99.90
38582;DHT22;24349;53.720;10.014;2023-10-13T11:17:22;18.00;99.90
38582;DHT22;24349;53.720;10.014;2023-10-13T11:19:52;17.90;99.90
38582;DHT22;24349;53.720;10.014;2023-10-13T11:22:19;18.00;99.90
38582;DHT22;24349;53.720;10.014;2023-10-13T11:24:58;18.00;99.90
38582;DHT22;24349;53.720;10.014;2023-10-13T11:27:31;18.10;99.90
38582;DHT22;24349;53.720;10.014;2023-10-13T11:30:16;18.20;99.90
38582;DHT22;24349;53.720;10.014;2023-10-13T11:33:01;18.40;99.90
38582;DHT22;24349;53.720;10.014;2023-10-13T11:35:34;18.60;99.90
38582;DHT22;24349;53.720;10.014;2023-10-13T11:38:19;18.60;99.90
38582;DHT22;24349;53.720;10.014;2023-10-13T11:43:50;18.50;99.90
38582;DHT22;24349;53.720;10.014;2023-10-13T11:46:17;18.50;99.90
38582;DHT22;24349;53.720;10.014;2023-10-13T11:49:10;18.70;99.90
38582;DHT22;24349;53.720;10.014;2023-10-13T11:51:39;19.00;99.90
38582;DHT22;24349;53.720;10.014;2023-10-13T11:54:05;19.30;99.90
38582;DHT22;24349;53.720;10.014;2023-10-13T11:56:30;20.00;99.90
38582;DHT22;24349;53.720;10.014;2023-10-13T11:58:56;20.20;99.90
38582;DHT22;24349;53.720;10.014;2023-10-13T12:01:27;19.90;99.90
38582;DHT22;24349;53.720;10.014;2023-10-13T12:04:12;20.30;99.90
38582;DHT22;24349;53.720;10.014;2023-10-13T12:07:16;20.40;99.90
38582;DHT22;24349;53.720;10.014;2023-10-13T12:09:49;20.70;99.90
38582;DHT22;24349;53.720;10.014;2023-10-13T12:12:21;20.50;99.90
38582;DHT22;24349;53.720;10.014;2023-10-13T12:14:46;20.40;99.90
38582;DHT22;24349;53.720;10.014;2023-10-13T12:17:22;20.40;99.90
38582;DHT22;24349;53.720;10.014;2023-10-13T12:19:56;21.00;99.90
38582;DHT22;24349;53.720;10.014;2023-10-13T12:22:23;20.60;99.90
38582;DHT22;24349;53.720;10.014;2023-10-13T12:25:00;20.30;99.90
38582;DHT22;24349;53.720;10.014;2023-10-13T12:27:30;20.30;99.90
38582;DHT22;24349;53.720;10.014;2023-10-13T12:30:11;20.20;99.90
38582;DHT22;24349;53.720;10.014;2023-10-13T12:32:39;19.90;99.90
38582;DHT22;24349;53.720;10.014;2023-10-13T12:35:10;19.90;99.90
38582;DHT22;24349;53.720;10.014;2023-10-13T12:37:36;19.90;99.90
38582;DHT22;24349;53.720;10.014;2023-10-13T12:40:06;19.90;99.90
38582;DHT22;24349;53.720;10.014;2023-10-13T12:42:51;19.80;99.90
38582;DHT22;24349;53.720;10.014;2023-10-13T12:45:42;20.00;99.90
38582;DHT22;24349;53.720;10.014;2023-10-13T12:48:28;20.00;99.90
38582;DHT22;24349;53.720;10.014;2023-10-13T12:51:12;20.20;99.90
38582;DHT22;24349;53.720;10.014;2023-10-13T12:53:56;20.20;99.90
38582;DHT22;24349;53.720;10.014;2023-10-13T12:56:39;20.30;99.90
38582;DHT22;24349;53.720;10.014;2023-10-13T12:59:08;20.30;99.90
38582;DHT22;24349;53.720;10.014;2023-10-13T13:01:34;20.30;99.90
38582;DHT22;24349;53.720;10.014;2023-10-13T13:04:00;20.30;99.90
38582;DHT22;24349;53.720;10.014;2023-10-13T13:06:29;20.40;99.90
38582;DHT22;24349;53.720;10.014;2023-10-13T13:08:57;20.40;99.90
38582;DHT22;24349;53.720;10.014;2023-10-13T13:11:23;20.40;99.90
38582;DHT22;24349;53.720;10.014;2023-10-13T13:13:49;20.40;99.90
38582;DHT22;24349;53.720;10.014;2023-10-13T13:16:16;20.60;99.90
38582;DHT22;24349;53.720;10.014;2023-10-13T13:18:52;20.60;99.90
38582;DHT22;24349;53.720;10.014;2023-10-13T13:21:21;20.60;99.90
38582;DHT22;24349;53.720;10.014;2023-10-13T13:23:50;20.50;99.90
38582;DHT22;24349;53.720;10.014;2023-10-13T13:26:15;20.40;99.90
38582;DHT22;24349;53.720;10.014;2023-10-13T13:28:45;20.40;99.90
38582;DHT22;24349;53.720;10.014;2023-10-13T13:31:11;20.40;99.90
38582;DHT22;24349;53.720;10.014;2023-10-13T13:33:40;20.50;99.90
38582;DHT22;24349;53.720;10.014;2023-10-13T13:36:09;20.40;99.90
38582;DHT22;24349;53.720;10.014;2023-10-13T13:38:39;20.40;99.90
38582;DHT22;24349;53.720;10.014;2023-10-13T13:41:12;20.30;99.90
38582;DHT22;24349;53.720;10.014;2023-10-13T13:43:41;20.40;99.90
38582;DHT22;24349;53.720;10.014;2023-10-13T13:46:25;20.40;99.90
38582;DHT22;24349;53.720;10.014;2023-10-13T13:48:58;20.60;99.90
38582;DHT22;24349;53.720;10.014;2023-10-13T13:51:26;20.60;99.90
38582;DHT22;24349;53.720;10.014;2023-10-13T13:53:57;20.40;99.90
38582;DHT22;24349;53.720;10.014;2023-10-13T13:56:23;20.40;99.90
38582;DHT22;24349;53.720;10.014;2023-10-13T13:58:53;20.40;99.90
38582;DHT22;24349;53.720;10.014;2023-10-13T14:01:19;20.40;99.90
38582;DHT22;24349;53.720;10.014;2023-10-13T14:03:50;20.30;99.90
38582;DHT22;24349;53.720;10.014;2023-10-13T14:06:17;20.20;99.90
38582;DHT22;24349;53.720;10.014;2023-10-13T14:08:59;20.20;99.90
38582;DHT22;24349;53.720;10.014;2023-10-13T14:11:30;20.20;99.90
38582;DHT22;24349;53.720;10.014;2023-10-13T14:14:10;20.20;99.90
38582;DHT22;24349;53.720;10.014;2023-10-13T14:16:54;20.20;99.90
38582;DHT22;24349;53.720;10.014;2023-10-13T14:19:27;20.20;99.90
38582;DHT22;24349;53.720;10.014;2023-10-13T14:21:57;20.20;99.90
38582;DHT22;24349;53.720;10.014;2023-10-13T14:24:23;20.20;99.90
38582;DHT22;24349;53.720;10.014;2023-10-13T14:27:03;20.20;99.90
38582;DHT22;24349;53.720;10.014;2023-10-13T14:29:38;20.10;99.90
38582;DHT22;24349;53.720;10.014;2023-10-13T14:32:08;20.00;99.90
38582;DHT22;24349;53.720;10.014;2023-10-13T14:34:43;20.00;99.90
38582;DHT22;24349;53.720;10.014;2023-10-13T14:37:09;19.90;99.90
38582;DHT22;24349;53.720;10.014;2023-10-13T14:39:39;19.90;99.90
38582;DHT22;24349;53.720;10.014;2023-10-13T14:42:05;19.90;99.90
38582;DHT22;24349;53.720;10.014;2023-10-13T14:44:34;19.90;99.90
38582;DHT22;24349;53.720;10.014;2023-10-13T14:47:01;20.00;99.90
38582;DHT22;24349;53.720;10.014;2023-10-13T14:49:27;20.10;99.90
38582;DHT22;24349;53.720;10.014;2023-10-13T14:51:53;20.10;99.90
38582;DHT22;24349;53.720;10.014;2023-10-13T14:54:21;20.10;99.90
38582;DHT22;24349;53.720;10.014;2023-10-13T14:57:00;20.20;99.90
38582;DHT22;24349;53.720;10.014;2023-10-13T14:59:26;20.10;99.90
38582;DHT22;24349;53.720;10.014;2023-10-13T15:01:53;20.10;99.90
38582;DHT22;24349;53.720;10.014;2023-10-13T15:04:18;20.10;99.90
38582;DHT22;24349;53.720;10.014;2023-10-13T15:06:50;20.00;99.90
38582;DHT22;24349;53.720;10.014;2023-10-13T15:09:15;19.90;99.90
38582;DHT22;24349;53.720;10.014;2023-10-13T15:11:49;20.00;99.90
38582;DHT22;24349;53.720;10.014;2023-10-13T15:14:18;20.00;99.90
38582;DHT22;24349;53.720;10.014;2023-10-13T15:16:46;20.00;99.90
38582;DHT22;24349;53.720;10.014;2023-10-13T15:19:11;19.90;99.90
38582;DHT22;24349;53.720;10.014;2023-10-13T15:21:37;20.00;99.90
38582;DHT22;24349;53.720;10.014;2023-10-13T15:24:06;19.90;99.90
38582;DHT22;24349;53.720;10.014;2023-10-13T15:26:47;20.00;99.90
38582;DHT22;24349;53.720;10.014;2023-10-13T15:29:18;20.10;99.90
38582;DHT22;24349;53.720;10.014;2023-10-13T15:31:50;20.20;99.90
38582;DHT22;24349;53.720;10.014;2023-10-13T15:34:26;20.20;99.90
38582;DHT22;24349;53.720;10.014;2023-10-13T15:36:53;20.30;99.90
38582;DHT22;24349;53.720;10.014;2023-10-13T15:39:21;20.30;99.90
38582;DHT22;24349;53.720;10.014;2023-10-13T15:41:50;20.40;99.90
38582;DHT22;24349;53.720;10.014;2023-10-13T15:44:20;20.30;99.90
38582;DHT22;24349;53.720;10.014;2023-10-13T15:46:52;20.30;99.90
38582;DHT22;24349;53.720;10.014;2023-10-13T15:49:18;20.40;99.90
38582;DHT22;24349;53.720;10.014;2023-10-13T15:51:44;20.40;99.90
38582;DHT22;24349;53.720;10.014;2023-10-13T15:54:11;20.50;99.90
38582;DHT22;24349;53.720;10.014;2023-10-13T15:56:47;20.50;99.90
38582;DHT22;24349;53.720;10.014;2023-10-13T15:59:14;20.50;99.90
38582;DHT22;24349;53.720;10.014;2023-10-13T16:01:39;20.50;99.90
38582;DHT22;24349;53.720;10.014;2023-10-13T16:04:06;20.60;99.90
38582;DHT22;24349;53.720;10.014;2023-10-13T16:06:44;20.50;99.90
38582;DHT22;24349;53.720;10.014;2023-10-13T16:09:16;20.40;99.90
38582;DHT22;24349;53.720;10.014;2023-10-13T16:11:45;20.40;99.90